createdAt,value
2023-04-27T00:02:39.157Z,11.18
2023-04-27T00:05:43.605Z,8.73
2023-04-27T00:08:51.665Z,8.82
2023-04-27T00:11:30.713Z,7.78
2023-04-27T00:14:30.248Z,10.23
2023-04-27T00:17:12.877Z,8.07
2023-04-27T00:20:47.849Z,9.32
2023-04-27T00:23:05.979Z,7.57
2023-04-27T00:25:47.600Z,8.30
2023-04-27T00:28:40.046Z,8.65
2023-04-27T00:38:40.636Z,8.43
2023-04-27T00:44:17.113Z,7.82
2023-04-27T00:47:09.262Z,7.50
2023-04-27T00:52:55.807Z,7.90
2023-04-27T00:55:35.240Z,8.50
2023-04-27T00:58:08.795Z,7.63
2023-04-27T01:01:29.084Z,8.48
2023-04-27T01:04:12.277Z,7.40
2023-04-27T01:06:39.525Z,8.93
2023-04-27T01:09:06.548Z,8.50
2023-04-27T01:11:33.975Z,8.05
2023-04-27T01:14:22.158Z,8.65
2023-04-27T01:17:23.233Z,7.45
2023-04-27T01:20:07.562Z,7.50
2023-04-27T01:22:34.642Z,6.97
2023-04-27T01:25:01.865Z,7.68
2023-04-27T01:27:52.028Z,7.60
2023-04-27T01:30:56.058Z,7.63
2023-04-27T01:33:52.016Z,7.32
2023-04-27T01:36:19.282Z,7.97
2023-04-27T01:38:46.333Z,8.82
2023-04-27T01:41:14.074Z,8.52
2023-04-27T01:43:45.669Z,9.45
2023-04-27T01:46:34.033Z,8.75
2023-04-27T01:49:14.758Z,7.38
2023-04-27T01:51:43.421Z,7.85
2023-04-27T01:54:10.822Z,8.38
2023-04-27T01:56:38.141Z,7.85
2023-04-27T01:59:05.439Z,8.77
2023-04-27T02:01:53.103Z,7.53
2023-04-27T02:04:34.267Z,8.38
2023-04-27T02:07:01.592Z,8.82
2023-04-27T02:09:28.864Z,7.82
2023-04-27T02:11:56.164Z,8.15
2023-04-27T02:14:43.081Z,7.82
2023-04-27T02:17:23.616Z,7.97
2023-04-27T02:19:50.670Z,7.78
2023-04-27T02:22:17.969Z,8.52
2023-04-27T02:24:44.941Z,8.85
2023-04-27T02:27:12.195Z,7.55
2023-04-27T02:30:01.021Z,6.65
2023-04-27T02:32:42.357Z,7.50
2023-04-27T02:35:10.264Z,7.57
2023-04-27T02:37:38.338Z,9.02
2023-04-27T02:40:09.624Z,8.88
2023-04-27T02:42:43.715Z,8.52
2023-04-27T02:45:12.048Z,8.65
2023-04-27T02:47:39.845Z,8.63
2023-04-27T02:50:07.893Z,8.73
2023-04-27T02:52:36.376Z,8.50
2023-04-27T02:55:04.148Z,8.95
2023-04-27T02:57:52.118Z,7.13
2023-04-27T03:00:53.067Z,7.82
2023-04-27T03:03:59.775Z,7.80
2023-04-27T03:06:47.254Z,9.65
2023-04-27T03:09:15.949Z,9.13
2023-04-27T03:11:43.523Z,8.63
2023-04-27T03:14:31.066Z,8.45
2023-04-27T03:17:11.876Z,8.70
2023-04-27T03:19:40.113Z,8.27
2023-04-27T03:22:07.196Z,8.85
2023-04-27T03:24:35.700Z,7.93
2023-04-27T03:27:03.494Z,8.25
2023-04-27T03:29:51.069Z,7.15
2023-04-27T03:32:31.765Z,6.88
2023-04-27T03:35:01.417Z,8.05
2023-04-27T03:37:28.599Z,8.63
2023-04-27T03:39:57.383Z,8.82
2023-04-27T03:42:25.196Z,6.93
2023-04-27T03:44:53.113Z,7.78
2023-04-27T03:47:20.394Z,7.88
2023-04-27T03:49:47.672Z,8.35
2023-04-27T03:52:15.393Z,7.15
2023-04-27T03:54:43.280Z,7.57
2023-04-27T03:57:12.336Z,7.70
2023-04-27T03:59:40.041Z,8.35
2023-04-27T04:02:27.290Z,7.38
2023-04-27T04:05:28.192Z,7.90
2023-04-27T04:08:10.427Z,7.47
2023-04-27T04:10:38.057Z,6.80
2023-04-27T04:13:25.146Z,7.65
2023-04-27T04:16:16.324Z,7.43
2023-04-27T04:18:43.686Z,12.25
2023-04-27T04:21:13.727Z,13.75
2023-04-27T04:24:01.102Z,15.68
2023-04-27T04:26:42.072Z,10.43
2023-04-27T04:29:29.120Z,13.07
2023-04-27T04:32:09.892Z,11.98
2023-04-27T04:34:37.741Z,12.15
2023-04-27T04:37:05.564Z,14.02
2023-04-27T04:39:33.374Z,8.32
2023-04-27T04:42:00.557Z,10.20
2023-04-27T04:44:30.326Z,11.32
2023-04-27T04:46:57.755Z,10.82
2023-04-27T04:49:26.675Z,13.07
2023-04-27T04:51:53.724Z,7.07
2023-04-27T04:54:24.497Z,11.60
2023-04-27T04:56:51.547Z,13.05
2023-04-27T04:59:18.842Z,14.73
2023-04-27T05:02:06.147Z,12.98
2023-04-27T05:04:46.851Z,10.30
2023-04-27T05:07:15.137Z,9.27
2023-04-27T05:09:42.771Z,8.00
2023-04-27T05:12:30.196Z,8.20
2023-04-27T05:15:31.191Z,10.88
2023-04-27T05:18:11.888Z,10.18
2023-04-27T05:20:39.228Z,8.73
2023-04-27T05:23:06.243Z,8.27
2023-04-27T05:25:35.075Z,6.95
2023-04-27T05:28:23.164Z,10.07
2023-04-27T05:31:03.877Z,8.68
2023-04-27T05:33:31.137Z,8.25
2023-04-27T05:35:59.812Z,8.15
2023-04-27T05:38:26.970Z,8.68
2023-04-27T05:40:58.782Z,8.35
2023-04-27T05:43:28.260Z,9.25
2023-04-27T05:46:15.204Z,8.70
2023-04-27T05:49:16.230Z,7.68
2023-04-27T05:52:17.220Z,7.78
2023-04-27T05:55:18.232Z,7.60
2023-04-27T05:58:07.829Z,7.65
2023-04-27T06:00:36.962Z,7.47
2023-04-27T06:03:04.370Z,8.52
2023-04-27T06:05:51.148Z,7.35
2023-04-27T06:08:31.925Z,8.05
2023-04-27T06:11:06.859Z,7.00
2023-04-27T06:13:54.192Z,7.93
2023-04-27T06:16:55.144Z,8.48
2023-04-27T06:19:35.757Z,8.27
2023-04-27T06:22:04.059Z,8.30
2023-04-27T06:24:51.161Z,8.02
2023-04-27T06:27:52.193Z,6.32
2023-04-27T06:30:53.206Z,8.35
2023-04-27T06:33:54.194Z,9.32
2023-04-27T06:36:23.068Z,9.90
2023-04-27T06:38:50.047Z,8.18
2023-04-27T06:41:17.090Z,10.70
2023-04-27T06:43:44.023Z,7.00
2023-04-27T06:46:31.268Z,8.95
2023-04-27T06:49:11.971Z,8.77
2023-04-27T06:51:39.108Z,7.25
2023-04-27T06:54:06.152Z,7.32
2023-04-27T06:56:33.251Z,6.70
2023-04-27T06:59:00.489Z,7.07
2023-04-27T07:01:27.584Z,7.38
2023-04-27T07:04:15.303Z,7.45
2023-04-27T07:06:56.498Z,7.53
2023-04-27T07:09:27.520Z,7.78
2023-04-27T07:12:15.164Z,7.43
2023-04-27T07:15:18.201Z,8.70
2023-04-27T07:18:08.624Z,9.30
2023-04-27T07:20:37.926Z,7.95
2023-04-27T07:23:04.914Z,7.32
2023-04-27T07:25:31.958Z,7.88
2023-04-27T07:28:19.211Z,6.97
2023-04-27T07:31:14.587Z,8.77
2023-04-27T07:34:08.190Z,8.27
2023-04-27T07:37:09.360Z,7.45
2023-04-27T07:39:44.080Z,8.90
2023-04-27T07:42:11.667Z,7.88
2023-04-27T07:44:38.678Z,7.03
2023-04-27T07:47:06.724Z,8.75
2023-04-27T07:49:37.502Z,7.78
2023-04-27T07:52:18.242Z,7.95
2023-04-27T07:54:58.988Z,8.30
2023-04-27T07:57:26.208Z,6.65
2023-04-27T07:59:53.714Z,8.52
2023-04-27T08:02:20.725Z,8.27
2023-04-27T08:04:49.071Z,6.95
2023-04-27T08:07:17.647Z,7.47
2023-04-27T08:09:45.053Z,7.00
2023-04-27T08:12:12.091Z,8.02
2023-04-27T08:14:39.164Z,5.15
2023-04-27T08:17:06.438Z,6.72
2023-04-27T08:19:33.585Z,6.65
2023-04-27T08:22:01.212Z,6.40
2023-04-27T08:24:48.246Z,6.13
2023-04-27T08:27:53.232Z,7.00
2023-04-27T08:33:56.510Z,6.50
2023-04-27T08:36:57.272Z,5.38
2023-04-27T08:39:37.922Z,6.10
2023-04-27T08:42:12.295Z,4.95
2023-04-27T08:44:43.574Z,6.40
2023-04-27T08:47:11.484Z,4.50
2023-04-27T08:49:38.852Z,5.43
2023-04-27T08:52:12.789Z,3.40
2023-04-27T08:54:39.840Z,5.97
2023-04-27T08:57:13.973Z,4.60
2023-04-27T08:59:41.509Z,5.30
2023-04-27T09:02:36.391Z,5.28
2023-04-27T09:05:46.422Z,5.00
2023-04-27T09:08:49.569Z,5.82
2023-04-27T09:11:29.675Z,5.85
2023-04-27T09:13:58.719Z,4.40
2023-04-27T09:16:28.506Z,5.82
2023-04-27T09:19:08.282Z,4.68
2023-04-27T09:22:23.427Z,5.45
2023-04-27T09:25:04.219Z,6.15
2023-04-27T09:27:57.468Z,4.85
2023-04-27T09:31:05.293Z,4.90
2023-04-27T09:33:57.604Z,6.50
2023-04-27T09:36:25.912Z,5.65
2023-04-27T09:38:53.573Z,5.95
2023-04-27T09:41:21.802Z,6.32
2023-04-27T09:43:50.678Z,5.43
2023-04-27T09:46:18.229Z,6.57
2023-04-27T09:48:45.262Z,6.60
2023-04-27T09:51:15.086Z,6.47
2023-04-27T09:53:58.853Z,5.18
2023-04-27T09:56:51.183Z,6.35
2023-04-27T09:59:57.222Z,5.82
2023-04-27T10:02:26.917Z,6.35
2023-04-27T10:05:51.310Z,7.15
2023-04-27T10:08:53.284Z,6.43
2023-04-27T10:11:40.904Z,6.18
2023-04-27T10:14:11.184Z,6.47
2023-04-27T10:16:58.860Z,7.57
2023-04-27T10:19:26.276Z,7.20
2023-04-27T10:22:03.715Z,6.55
2023-04-27T10:24:41.362Z,6.35
2023-04-27T10:27:11.584Z,6.65
2023-04-27T10:30:00.355Z,7.45
2023-04-27T10:33:06.374Z,7.05
2023-04-27T10:35:56.661Z,13.20
2023-04-27T10:38:29.495Z,6.70
2023-04-27T10:41:00.390Z,7.30
2023-04-27T10:43:29.936Z,7.25
2023-04-27T10:46:14.088Z,6.40
2023-04-27T10:51:30.298Z,5.72
2023-04-27T10:54:12.485Z,6.80
2023-04-27T10:56:40.807Z,7.45
2023-04-27T10:59:08.529Z,6.50
2023-04-27T11:01:55.382Z,6.38
2023-04-27T11:04:56.400Z,7.55
2023-04-27T11:07:39.098Z,6.68
2023-04-27T11:10:08.555Z,7.45
2023-04-27T11:12:39.157Z,7.03
2023-04-27T11:15:07.378Z,5.45
2023-04-27T11:17:54.410Z,6.05
2023-04-27T11:20:34.906Z,5.72
2023-04-27T11:23:01.845Z,5.80
2023-04-27T11:25:30.120Z,7.45
2023-04-27T11:28:11.353Z,6.78
2023-04-27T11:31:13.427Z,5.35
2023-04-27T11:33:55.985Z,6.85
2023-04-27T11:36:25.187Z,6.32
2023-04-27T11:38:57.888Z,6.03
2023-04-27T11:41:33.798Z,5.20
2023-04-27T11:44:07.619Z,4.25
2023-04-27T11:46:58.342Z,7.45
2023-04-27T11:50:03.426Z,6.22
2023-04-27T11:52:49.043Z,5.47
2023-04-27T11:55:16.439Z,7.88
2023-04-27T11:57:43.720Z,5.93
2023-04-27T12:00:11.457Z,5.85
2023-04-27T12:02:43.706Z,5.13
2023-04-27T12:05:31.444Z,6.10
2023-04-27T12:08:12.927Z,7.68
2023-04-27T12:10:40.988Z,7.05
2023-04-27T12:13:08.230Z,6.95
2023-04-27T12:15:35.224Z,7.25
2023-04-27T12:18:02.419Z,7.40
2023-04-27T12:20:29.681Z,7.90
2023-04-27T12:22:58.049Z,7.65
2023-04-27T12:25:25.187Z,9.23
2023-04-27T12:28:12.417Z,8.30
2023-04-27T12:31:13.453Z,7.95
2023-04-27T12:33:54.259Z,7.03
2023-04-27T12:36:21.330Z,8.73
2023-04-27T12:38:48.423Z,8.95
2023-04-27T12:41:15.753Z,9.05
2023-04-27T12:43:43.784Z,10.18
2023-04-27T12:46:11.675Z,9.50
2023-04-27T12:48:41.868Z,9.65
2023-04-27T12:51:29.399Z,8.75
2023-04-27T12:54:30.456Z,8.80
2023-04-27T12:57:13.081Z,8.15
2023-04-27T12:59:41.626Z,8.27
2023-04-27T13:02:09.980Z,8.75
2023-04-27T13:04:57.500Z,9.07
2023-04-27T13:07:51.402Z,9.55
2023-04-27T13:10:32.179Z,11.15
2023-04-27T13:13:12.577Z,9.07
2023-04-27T13:16:06.428Z,8.48
2023-04-27T13:18:55.657Z,9.10
2023-04-27T13:21:23.324Z,11.00
2023-04-27T13:23:51.325Z,8.25
2023-04-27T13:26:19.199Z,9.85
2023-04-27T13:29:06.407Z,10.10
2023-04-27T13:32:07.453Z,10.45
2023-04-27T13:34:48.105Z,9.93
2023-04-27T13:37:15.066Z,10.95
2023-04-27T13:39:42.070Z,8.75
2023-04-27T13:42:09.112Z,8.70
2023-04-27T13:44:36.164Z,11.13
2023-04-27T13:47:23.463Z,10.00
2023-04-27T13:50:27.550Z,10.60
2023-04-27T13:53:28.472Z,10.20
2023-04-27T13:56:09.121Z,11.77
2023-04-27T13:58:37.179Z,10.98
2023-04-27T14:01:11.837Z,10.65
2023-04-27T14:03:59.586Z,11.35
2023-04-27T14:07:00.458Z,11.20
2023-04-27T14:10:01.481Z,11.95
2023-04-27T14:13:03.439Z,10.13
2023-04-27T14:16:04.531Z,7.95
2023-04-27T14:18:55.994Z,11.57
2023-04-27T14:21:23.091Z,9.73
2023-04-27T14:23:50.044Z,9.25
2023-04-27T14:26:17.082Z,10.82
2023-04-27T14:29:04.464Z,9.90
2023-04-27T14:31:46.320Z,9.50
2023-04-27T14:34:17.912Z,10.27
2023-04-27T14:36:46.120Z,10.38
2023-04-27T14:39:13.508Z,10.05
2023-04-27T14:42:00.483Z,10.30
2023-04-27T14:44:41.229Z,9.07
2023-04-27T14:47:08.305Z,9.05
2023-04-27T14:49:35.445Z,10.80
2023-04-27T14:52:22.458Z,12.63
2023-04-27T14:55:24.501Z,10.63
2023-04-27T14:58:26.481Z,12.20
2023-04-27T15:01:27.562Z,12.95
2023-04-27T15:04:28.681Z,9.98
2023-04-27T15:07:29.510Z,13.13
2023-04-27T15:10:11.332Z,11.65
2023-04-27T15:12:38.446Z,20.73
2023-04-27T15:15:08.051Z,11.88
2023-04-27T15:17:37.561Z,11.77
2023-04-27T15:20:05.999Z,11.93
2023-04-27T15:22:33.132Z,12.43
2023-04-27T15:25:00.323Z,11.68
2023-04-27T15:27:48.518Z,14.45
2023-04-27T15:30:49.531Z,12.80
2023-04-27T15:33:45.939Z,11.70
2023-04-27T15:36:12.930Z,12.48
2023-04-27T15:38:41.917Z,10.13
2023-04-27T15:41:28.537Z,12.38
2023-04-27T15:44:30.964Z,11.20
2023-04-27T15:47:22.721Z,14.63
2023-04-27T15:50:09.576Z,10.90
2023-04-27T15:53:10.521Z,12.25
2023-04-27T15:56:11.616Z,11.63
2023-04-27T15:59:13.713Z,12.88
2023-04-27T16:02:14.545Z,11.32
2023-04-27T16:05:15.610Z,11.80
2023-04-27T16:07:56.942Z,15.00
2023-04-27T16:10:24.099Z,13.88
2023-04-27T16:12:51.542Z,12.20
2023-04-27T16:15:19.073Z,12.77
2023-04-27T16:17:46.934Z,13.23
2023-04-27T16:20:14.360Z,12.45
2023-04-27T16:23:01.702Z,11.32
2023-04-27T16:25:42.562Z,10.75
2023-04-27T16:28:29.591Z,9.65
2023-04-27T16:31:31.603Z,11.45
2023-04-27T16:34:12.144Z,7.72
2023-04-27T16:36:39.135Z,9.23
2023-04-27T16:39:06.095Z,9.38
2023-04-27T16:41:33.538Z,9.82
2023-04-27T16:44:00.637Z,8.55
2023-04-27T16:46:27.734Z,7.65
2023-04-27T16:49:14.900Z,8.23
2023-04-27T16:52:15.828Z,6.55
2023-04-27T16:55:16.539Z,5.20
2023-04-27T16:57:56.914Z,5.72
2023-04-27T17:00:23.865Z,5.95
2023-04-27T17:02:50.894Z,5.63
2023-04-27T17:05:37.549Z,4.82
2023-04-27T17:08:38.773Z,5.97
2023-04-27T17:11:44.703Z,5.38
2023-04-27T17:14:38.356Z,5.50
2023-04-27T17:17:10.600Z,5.30
2023-04-27T17:19:37.673Z,5.25
2023-04-27T17:22:24.560Z,5.28
2023-04-27T17:25:05.785Z,4.68
2023-04-27T17:27:52.632Z,3.45
2023-04-27T17:30:39.396Z,4.60
2023-04-27T17:33:07.302Z,4.30
2023-04-27T17:35:55.608Z,3.90
2023-04-27T17:38:36.483Z,4.07
2023-04-27T17:41:04.248Z,5.65
2023-04-27T17:43:31.472Z,5.53
2023-04-27T17:46:21.648Z,5.78
2023-04-27T17:49:28.593Z,6.55
2023-04-27T17:52:29.676Z,6.55
2023-04-27T17:55:25.973Z,5.63
2023-04-27T17:57:52.984Z,6.63
2023-04-27T18:00:22.111Z,5.15
2023-04-27T18:02:49.953Z,6.13
2023-04-27T18:05:38.849Z,4.88
2023-04-27T18:08:42.590Z,5.55
2023-04-27T18:11:43.634Z,6.93
2023-04-27T18:14:31.212Z,6.78
2023-04-27T18:19:25.253Z,6.25
2023-04-27T18:21:52.319Z,5.70
2023-04-27T18:24:19.312Z,7.13
2023-04-27T18:26:46.272Z,7.65
2023-04-27T18:29:33.608Z,6.88
2023-04-27T18:32:34.679Z,6.53
2023-04-27T18:35:35.618Z,7.13
2023-04-27T18:38:36.618Z,6.57
2023-04-27T18:41:37.782Z,7.85
2023-04-27T18:44:38.650Z,6.90
2023-04-27T18:47:08.616Z,5.75
2023-04-27T18:49:36.002Z,5.32
2023-04-27T18:52:22.638Z,6.65
2023-04-27T18:55:24.621Z,6.78
2023-04-27T18:58:05.225Z,6.70
2023-04-27T19:00:32.236Z,6.68
2023-04-27T19:02:59.367Z,8.52
2023-04-27T19:06:00.686Z,8.77
2023-04-27T19:09:01.663Z,8.35
2023-04-27T19:12:03.541Z,8.43
2023-04-27T19:15:05.649Z,8.43
2023-04-27T19:18:10.857Z,8.70
2023-04-27T19:23:19.561Z,9.52
2023-04-27T19:25:50.533Z,9.43
2023-04-27T19:28:37.823Z,10.52
2023-04-27T19:31:43.036Z,9.85
2023-04-27T19:34:23.343Z,10.40
2023-04-27T19:36:50.319Z,9.73
2023-04-27T19:39:37.671Z,9.52
2023-04-27T19:42:18.283Z,9.10
2023-04-27T19:45:05.668Z,11.15
2023-04-27T19:48:06.787Z,11.50
2023-04-27T19:51:07.686Z,11.30
2023-04-27T19:54:08.696Z,10.48
2023-04-27T19:57:10.687Z,11.57
2023-04-27T20:00:13.671Z,11.50
2023-04-27T20:02:41.921Z,9.32
2023-04-27T20:05:29.918Z,10.75
2023-04-27T20:08:30.691Z,9.70
2023-04-27T20:11:33.729Z,10.50
2023-04-27T20:14:31.382Z,10.13
2023-04-27T20:17:24.714Z,9.93
2023-04-27T20:20:19.708Z,9.65
2023-04-27T20:23:02.502Z,9.85
2023-04-27T20:25:49.761Z,9.82
2023-04-27T20:28:50.806Z,10.02
2023-04-27T20:31:31.445Z,9.05
2023-04-27T20:34:18.741Z,9.75
2023-04-27T20:36:59.414Z,9.45
2023-04-27T20:39:26.590Z,10.50
2023-04-27T20:41:54.414Z,9.20
2023-04-27T20:44:42.835Z,9.27
2023-04-27T20:47:24.360Z,8.85
2023-04-27T20:49:51.455Z,9.75
2023-04-27T20:52:38.748Z,10.15
2023-04-27T20:55:40.741Z,9.48
2023-04-27T20:58:32.659Z,10.20
2023-04-27T21:00:59.714Z,10.77
2023-04-27T21:03:47.952Z,11.30
2023-04-27T21:06:48.799Z,11.27
2023-04-27T21:09:29.278Z,9.25
2023-04-27T21:11:56.343Z,8.50
2023-04-27T21:14:43.793Z,8.32
2023-04-27T21:17:24.429Z,7.15
2023-04-27T21:19:51.342Z,7.53
2023-04-27T21:22:18.372Z,6.25
2023-04-27T21:24:46.408Z,6.50
2023-04-27T21:27:13.419Z,6.75
2023-04-27T21:30:00.717Z,6.15
2023-04-27T21:33:01.754Z,5.53
2023-04-27T21:36:03.772Z,6.15
2023-04-27T21:39:04.724Z,5.07
2023-04-27T21:42:05.713Z,5.22
2023-04-27T21:45:06.709Z,4.90
2023-04-27T21:48:07.806Z,5.10
2023-04-27T21:51:08.738Z,4.40
2023-04-27T21:54:09.766Z,3.38
2023-04-27T21:57:04.256Z,4.93
2023-04-27T21:59:40.200Z,4.55
2023-04-27T22:02:07.166Z,4.00
2023-04-27T22:04:55.815Z,4.43
2023-04-27T22:07:58.723Z,3.50
2023-04-27T22:10:59.766Z,6.10
2023-04-27T22:13:40.276Z,4.38
2023-04-27T22:16:07.373Z,4.00
2023-04-27T22:18:54.757Z,3.95
2023-04-27T22:21:35.488Z,3.35
2023-04-27T22:24:02.383Z,3.88
2023-04-27T22:26:29.615Z,3.97
2023-04-27T22:29:16.757Z,3.65
2023-04-27T22:31:57.901Z,3.95
2023-04-27T22:34:38.235Z,4.15
2023-04-27T22:37:31.753Z,3.28
2023-04-27T22:40:32.723Z,3.17
2023-04-27T22:43:05.598Z,2.97
2023-04-27T22:45:32.579Z,3.05
2023-04-27T22:48:00.012Z,3.70
2023-04-27T22:50:27.092Z,4.22
2023-04-27T22:53:13.753Z,3.83
2023-04-27T22:56:16.095Z,3.65
2023-04-27T22:58:58.324Z,4.88
2023-04-27T23:01:25.714Z,3.97
2023-04-27T23:04:13.979Z,4.00
2023-04-27T23:06:55.008Z,4.95
2023-04-27T23:09:22.709Z,5.13
2023-04-27T23:11:50.948Z,4.60
2023-04-27T23:14:18.408Z,4.35
2023-04-27T23:16:48.698Z,4.18
2023-04-27T23:19:15.886Z,4.97
2023-04-27T23:21:43.753Z,4.80
2023-04-27T23:24:10.693Z,5.22
2023-04-27T23:26:37.680Z,3.97
2023-04-27T23:29:24.776Z,4.60
2023-04-27T23:32:25.805Z,4.55
2023-04-27T23:35:26.775Z,4.45
2023-04-27T23:38:07.311Z,4.20
2023-04-27T23:40:34.343Z,5.55
2023-04-27T23:43:01.496Z,5.10
2023-04-27T23:45:28.336Z,5.82
2023-04-27T23:48:15.763Z,5.30
2023-04-27T23:51:17.793Z,6.03
2023-04-27T23:54:18.805Z,6.75
2023-04-27T23:56:59.431Z,7.38
2023-04-27T23:59:26.399Z,7.15
